Time;durP1;ratioP1;P1;durP2;ratioP2;P2;SDS_P1;SDS_P2;PMS_P1;PMS_P2;Temp;Humidity;BMP_temperature;BMP_pressure;BME280_temperature;BME280_humidity;BME280_pressure;Samples;Min_cycle;Max_cycle;Signal;HPM_P1;HPM_P2
2022/12/21 05:14:15;;;;;;;58.75;25.40;;;;;;;-0.76;100.00;100958.72;5576891;32;181792;-87
2022/12/21 05:17:18;;;;;;;55.42;24.98;;;;;;;-0.84;100.00;100959.50;5564144;32;33576;-87
2022/12/21 05:20:22;;;;;;;58.97;25.92;;;;;;;-0.81;100.00;100956.03;5564017;32;33791;-88
2022/12/21 05:23:25;;;;;;;55.80;25.42;;;;;;;-0.76;100.00;100958.72;5563974;32;34171;-88
2022/12/21 05:26:28;;;;;;;58.90;24.85;;;;;;;-0.74;100.00;100957.84;5563671;32;34590;-87
2022/12/21 05:29:31;;;;;;;69.95;24.02;;;;;;;-0.71;100.00;100959.59;5562563;32;33500;-88
2022/12/21 05:32:34;;;;;;;52.88;24.77;;;;;;;-0.66;100.00;100952.66;5563227;32;34062;-91
2022/12/21 05:35:39;;;;;;;47.78;22.98;;;;;;;-0.66;100.00;100954.41;5566800;32;34538;-91
2022/12/21 05:38:43;;;;;;;43.17;20.83;;;;;;;-0.68;100.00;100952.69;5570334;32;32880;-92
2022/12/21 05:41:46;;;;;;;39.20;19.75;;;;;;;-0.58;100.00;100950.13;5563983;32;34617;-88
2022/12/21 05:44:49;;;;;;;49.08;21.92;;;;;;;-0.60;100.00;100949.25;5562743;32;32310;-88
2022/12/21 05:47:54;;;;;;;52.03;22.20;;;;;;;-0.60;100.00;100950.09;5563126;32;33103;-88
2022/12/21 05:50:58;;;;;;;48.50;21.42;;;;;;;-0.63;100.00;100951.81;5563601;32;34527;-88
2022/12/21 05:54:01;;;;;;;45.75;20.90;;;;;;;-0.61;100.00;100956.19;5563485;32;33857;-88
2022/12/21 05:57:05;;;;;;;45.85;21.25;;;;;;;-0.62;100.00;100954.44;5562938;32;33719;-88
2022/12/21 06:00:09;;;;;;;43.42;20.10;;;;;;;-0.56;100.00;100958.81;5562833;32;35121;-88
2022/12/21 06:03:17;;;;;;;41.67;19.67;;;;;;;-0.63;100.00;100960.53;5562018;32;32941;-88
2022/12/21 06:06:21;;;;;;;39.58;18.62;;;;;;;-0.66;100.00;100949.22;5563634;32;33577;-89
2022/12/21 06:09:24;;;;;;;39.63;18.50;;;;;;;-0.69;100.00;100944.84;5573866;32;33613;-89
2022/12/21 06:12:31;;;;;;;40.97;19.15;;;;;;;-0.68;100.00;100950.06;5572627;32;33932;-89
2022/12/21 06:15:34;;;;;;;40.78;18.20;;;;;;;-0.66;100.00;100949.22;5563555;32;33965;-89
2022/12/21 06:18:38;;;;;;;40.22;18.92;;;;;;;-0.70;100.00;100951.78;5552629;32;33919;-89
2022/12/21 06:21:42;;;;;;;37.25;17.67;;;;;;;-0.63;100.00;100950.09;5557050;32;32664;-88
2022/12/21 06:24:44;;;;;;;41.72;19.48;;;;;;;-0.58;100.00;100955.31;5553363;32;34336;-89
2022/12/21 06:27:47;;;;;;;33.90;17.30;;;;;;;-0.57;100.00;100944.91;5627244;26;33822;-89
2022/12/21 06:30:57;;;;;;;39.08;19.37;;;;;;;-0.49;100.00;100958.00;5549256;32;33812;-88
2022/12/21 06:34:00;;;;;;;38.72;18.58;;;;;;;-0.47;100.00;100957.97;5558948;32;33428;-87
2022/12/21 06:37:03;;;;;;;38.08;19.12;;;;;;;-0.42;100.00;100956.28;5565261;32;35251;-87
2022/12/21 06:40:07;;;;;;;40.88;19.45;;;;;;;-0.45;100.00;100957.12;5554870;32;33631;-88
2022/12/21 06:43:11;;;;;;;42.33;20.58;;;;;;;-0.35;100.00;100942.41;5549657;32;33868;-88
2022/12/21 06:46:16;;;;;;;42.05;19.05;;;;;;;-0.48;100.00;100936.28;5541206;32;32424;-88
2022/12/21 06:49:18;;;;;;;40.70;18.30;;;;;;;-0.59;100.00;100933.62;5546179;32;33795;-88
2022/12/21 06:52:22;;;;;;;40.78;19.87;;;;;;;-0.48;100.00;100940.59;5538647;32;32339;-88
2022/12/21 06:55:25;;;;;;;41.60;19.62;;;;;;;-0.57;100.00;100926.69;5553688;32;34806;-88
2022/12/21 06:58:29;;;;;;;41.72;21.70;;;;;;;-0.56;100.00;100945.78;5545787;32;34614;-88
2022/12/21 07:01:35;;;;;;;39.75;19.35;;;;;;;-0.61;100.00;100939.69;5555093;32;33888;-87
2022/12/21 07:04:39;;;;;;;42.42;20.12;;;;;;;-0.57;100.00;100936.22;5551056;32;33865;-88
2022/12/21 07:07:42;;;;;;;36.97;18.60;;;;;;;-0.61;100.00;100930.12;5549221;32;34629;-89
2022/12/21 07:10:45;;;;;;;40.33;20.15;;;;;;;-0.59;100.00;100937.94;5548379;32;33923;-88
2022/12/21 07:13:49;;;;;;;43.33;20.35;;;;;;;-0.56;100.00;100936.22;5551791;32;33765;-88
2022/12/21 07:16:52;;;;;;;43.55;20.98;;;;;;;-0.59;100.00;100943.16;5545939;32;35211;-87
2022/12/21 07:19:54;;;;;;;42.45;19.87;;;;;;;-0.55;100.00;100942.34;5543026;32;34443;-87
2022/12/21 07:22:57;;;;;;;43.15;19.60;;;;;;;-0.55;100.00;100931.91;5549205;32;33638;-87
2022/12/21 07:26:00;;;;;;;48.17;20.70;;;;;;;-0.48;100.00;100925.84;5542467;32;34702;-87
2022/12/21 07:29:11;;;;;;;43.58;21.12;;;;;;;-0.22;100.00;100930.31;5538675;32;32791;-92
2022/12/21 07:32:14;;;;;;;41.97;20.85;;;;;;;-0.36;100.00;100938.06;5536434;32;35018;-92
2022/12/21 07:35:17;;;;;;;44.92;20.55;;;;;;;-0.34;100.00;100932.84;5528701;32;34096;-89
2022/12/21 07:38:19;;;;;;;47.47;21.80;;;;;;;-0.43;100.00;100939.78;5528721;32;32187;-87
2022/12/21 07:41:23;;;;;;;45.30;21.20;;;;;;;-0.33;100.00;100922.44;5530623;32;34250;-88
2022/12/21 07:44:25;;;;;;;43.13;20.58;;;;;;;-0.31;100.00;100933.75;5531135;32;32406;-88
2022/12/21 07:47:29;;;;;;;46.67;21.62;;;;;;;-0.31;100.00;100932.84;5530559;32;32693;-87
2022/12/21 07:50:32;;;;;;;43.47;21.08;;;;;;;-0.31;100.00;100933.75;5538927;32;33646;-87
2022/12/21 07:53:35;;;;;;;43.50;22.13;;;;;;;-0.29;100.00;100924.19;5541714;32;35279;-88
2022/12/21 07:56:38;;;;;;;44.95;21.95;;;;;;;-0.32;100.00;100918.97;5540736;32;33814;-88
2022/12/21 07:59:40;;;;;;;43.97;21.60;;;;;;;-0.23;100.00;100922.47;5549909;32;33904;-87
2022/12/21 08:02:43;;;;;;;46.75;22.67;;;;;;;-0.27;100.00;100924.19;5540660;32;34010;-87
2022/12/21 08:05:47;;;;;;;46.78;22.52;;;;;;;-0.23;100.00;100914.66;5531023;32;34025;-88
2022/12/21 08:08:50;;;;;;;44.17;22.02;;;;;;;-0.24;100.00;100911.19;5537322;32;34311;-87
2022/12/21 08:11:53;;;;;;;48.58;22.67;;;;;;;-0.14;100.00;100912.94;5548429;32;34527;-87
2022/12/21 08:14:55;;;;;;;45.90;22.52;;;;;;;-0.05;100.00;100917.31;5544453;32;34023;-88
2022/12/21 08:17:58;;;;;;;50.05;22.92;;;;;;;0.04;100.00;100913.84;5537656;32;33831;-87
2022/12/21 08:21:08;;;;;;;49.67;23.75;;;;;;;0.12;100.00;100919.09;5541287;32;34530;-86
2022/12/21 08:24:12;;;;;;;44.80;22.33;;;;;;;0.21;100.00;100916.50;5530101;32;34110;-87
2022/12/21 08:27:14;;;;;;;44.88;22.65;;;;;;;0.23;100.00;100914.78;5535554;32;34259;-85
2022/12/21 08:30:17;;;;;;;46.25;23.15;;;;;;;0.02;100.00;100907.78;5550518;32;34364;-86
2022/12/21 08:33:20;;;;;;;43.83;22.10;;;;;;;0.07;100.00;100907.78;5550310;32;34108;-85
2022/12/21 08:36:24;;;;;;;51.00;23.75;;;;;;;0.23;100.00;100904.34;5552191;32;34239;-87
2022/12/21 08:39:28;;;;;;;52.42;23.92;;;;;;;0.18;100.00;100910.41;5548534;32;33759;-86
2022/12/21 08:42:33;;;;;;;52.67;23.75;;;;;;;0.23;100.00;100912.19;5550507;32;33979;-88
2022/12/21 08:45:36;;;;;;;50.72;24.12;;;;;;;0.31;100.00;100912.19;5550172;32;34333;-88
2022/12/21 08:48:39;;;;;;;45.45;22.05;;;;;;;0.33;100.00;100910.44;5549185;32;34127;-88
2022/12/21 08:51:42;;;;;;;51.70;24.77;;;;;;;0.48;100.00;100917.44;5562497;32;33839;-88
2022/12/21 08:54:45;;;;;;;47.08;23.30;;;;;;;0.43;100.00;100902.59;5570673;32;33532;-87
2022/12/21 08:57:47;;;;;;;47.17;23.92;;;;;;;0.42;100.00;100904.38;5548485;32;32853;-87
2022/12/21 09:00:54;;;;;;;52.42;24.25;;;;;;;0.43;100.00;100900.00;5561167;31;34135;-87
2022/12/21 09:03:57;;;;;;;50.75;24.92;;;;;;;0.50;100.00;100905.22;5552883;32;34346;-87
2022/12/21 09:07:00;;;;;;;47.22;24.52;;;;;;;0.43;100.00;100903.50;5539449;32;34798;-87
2022/12/21 09:10:06;;;;;;;48.25;24.85;;;;;;;0.32;100.00;100907.81;5554214;32;32897;-87
2022/12/21 09:13:10;;;;;;;47.88;24.50;;;;;;;0.45;100.00;100906.97;5548682;32;33627;-86
2022/12/21 09:16:16;;;;;;;50.25;24.67;;;;;;;0.51;100.00;100911.34;5552134;32;33748;-87
2022/12/21 09:19:19;;;;;;;48.78;24.37;;;;;;;0.49;100.00;100890.44;5555495;32;33724;-86
2022/12/21 09:22:23;;;;;;;48.35;24.23;;;;;;;0.55;100.00;100897.38;5567568;32;32801;-87
2022/12/21 09:25:26;;;;;;;51.83;25.55;;;;;;;0.64;100.00;100889.56;5567774;32;34137;-90
2022/12/21 09:28:29;;;;;;;51.85;24.65;;;;;;;0.57;100.00;100880.00;5539540;32;33021;-90
2022/12/21 09:31:32;;;;;;;52.60;25.50;;;;;;;0.65;100.00;100877.37;5548507;32;33929;-86
2022/12/21 09:34:36;;;;;;;51.78;25.15;;;;;;;0.60;100.00;100874.78;5561065;32;34202;-88
2022/12/21 09:37:39;;;;;;;50.92;25.25;;;;;;;0.66;100.00;100881.75;5542929;32;32871;-91
2022/12/21 09:40:46;;;;;;;49.08;25.80;;;;;;;0.72;100.00;100863.47;5565089;32;34405;-92
2022/12/21 09:43:57;;;;;;;52.25;24.95;;;;;;;0.76;100.00;100864.31;5547321;32;34537;-93
2022/12/21 09:47:03;;;;;;;53.40;26.35;;;;;;;0.64;100.00;100854.75;5548559;32;33740;-87
2022/12/21 09:50:15;;;;;;;51.80;25.60;;;;;;;0.51;100.00;100846.91;5550638;32;34353;-87
2022/12/21 09:53:34;;;;;;;56.28;26.27;;;;;;;0.74;100.00;100848.66;5561714;32;33895;-86
2022/12/21 09:56:43;;;;;;;56.28;27.20;;;;;;;0.93;100.00;100843.41;5559181;32;34339;-86
2022/12/21 09:59:45;;;;;;;51.05;25.85;;;;;;;0.87;100.00;100838.19;5558639;32;34240;-87
2022/12/21 10:03:07;;;;;;;53.30;27.27;;;;;;;0.97;100.00;100849.47;5541240;32;32940;-88
2022/12/21 10:06:13;;;;;;;;;;;;;;;0.85;100.00;100842.56;5555382;32;33608;-88
2022/12/21 10:09:42;;;;;;;52.53;25.80;;;;;;;0.89;100.00;100847.75;5558852;32;33221;-89
2022/12/21 10:13:22;;;;;;;52.05;26.50;;;;;;;0.88;100.00;100852.97;5553456;32;32527;-88
2022/12/21 10:16:47;;;;;;;45.83;23.58;;;;;;;0.72;100.00;100832.12;5553616;32;33308;-86
2022/12/21 10:20:57;;;;;;;49.40;24.25;;;;;;;0.82;100.00;100830.37;5558680;32;33877;-87
2022/12/21 10:24:03;;;;;;;51.50;25.23;;;;;;;0.90;100.00;100840.81;5492128;32;32928;-86
2022/12/21 10:27:24;;;;;;;49.53;24.87;;;;;;;0.90;100.00;100832.97;5559788;32;34066;-86
2022/12/21 10:30:31;;;;;;;54.00;25.88;;;;;;;0.93;100.00;100828.59;5546511;32;32940;-85
2022/12/21 10:33:41;;;;;;;47.75;24.73;;;;;;;1.59;100.00;100816.13;5542261;32;32877;-86
2022/12/21 10:36:46;;;;;;;52.10;24.58;;;;;;;1.37;100.00;100811.88;5557274;32;34783;-88
2022/12/21 10:39:56;;;;;;;50.90;23.92;;;;;;;1.12;100.00;100818.09;5558121;32;33841;-87
2022/12/21 10:42:59;;;;;;;48.08;24.60;;;;;;;1.12;100.00;100812.87;5556258;32;34016;-87
2022/12/21 10:46:05;;;;;;;47.03;24.95;;;;;;;1.04;100.00;100807.66;5562820;32;35846;-88
2022/12/21 10:49:37;;;;;;;53.40;26.33;;;;;;;0.93;100.00;100807.69;5560296;32;34423;-87
2022/12/21 10:52:44;;;;;;;50.53;26.55;;;;;;;0.94;100.00;100800.72;5546231;31;33849;-88
2022/12/21 10:55:47;;;;;;;49.05;24.17;;;;;;;1.01;100.00;100805.03;5544477;32;33951;-87
2022/12/21 10:58:59;;;;;;;55.75;26.87;;;;;;;0.80;100.00;100799.00;5548013;32;35005;-88
2022/12/21 11:02:05;;;;;;;51.53;26.10;;;;;;;0.78;100.00;100789.44;5558498;32;34614;-86
2022/12/21 11:05:35;;;;;;;51.45;27.02;;;;;;;0.92;100.00;100785.03;5557629;32;34200;-87
2022/12/21 11:08:48;;;;;;;47.80;25.42;;;;;;;0.76;100.00;100772.91;5557066;32;34424;-87
2022/12/21 11:11:53;;;;;;;54.67;25.88;;;;;;;0.78;100.00;100774.66;5553148;32;34365;-89
2022/12/21 11:14:55;;;;;;;51.35;26.33;;;;;;;0.79;100.00;100779.00;5557105;32;33155;-89
2022/12/21 11:17:59;;;;;;;49.42;25.85;;;;;;;0.73;100.00;100773.78;5548499;32;33790;-87
2022/12/21 11:21:09;;;;;;;56.13;26.42;;;;;;;0.69;100.00;100769.44;5549952;32;34112;-86
2022/12/21 11:24:18;;;;;;;52.80;26.58;;;;;;;0.74;100.00;100767.69;5535582;32;33429;-86
2022/12/21 11:27:32;;;;;;;53.65;26.42;;;;;;;0.79;100.00;100757.22;5559628;32;34827;-85
2022/12/21 11:30:35;;;;;;;51.97;26.12;;;;;;;1.11;100.00;100758.00;5551799;32;33989;-88
2022/12/21 11:33:43;;;;;;;53.47;26.67;;;;;;;0.86;100.00;100765.91;5548808;32;34476;-88
2022/12/21 11:37:00;;;;;;;58.15;26.85;;;;;;;0.76;100.00;100762.47;5552873;32;33587;-87
2022/12/21 11:40:11;;;;;;;55.03;26.58;;;;;;;0.89;100.00;100748.50;5536743;32;33148;-88
2022/12/21 11:43:48;;;;;;;47.97;25.00;;;;;;;0.93;100.00;100747.62;5559873;32;35042;-86
2022/12/21 11:47:09;;;;;;;53.72;25.62;;;;;;;1.00;100.00;100747.59;5541894;32;34195;-87
2022/12/21 11:50:21;;;;;;;49.72;24.98;;;;;;;1.03;100.00;100745.84;5542286;32;32372;-87
2022/12/21 11:53:39;;;;;;;55.10;26.98;;;;;;;0.98;100.00;100736.25;5558307;26;34180;-89
2022/12/21 11:56:50;;;;;;;56.08;24.73;;;;;;;0.79;100.00;100750.28;5518747;32;34601;-88
2022/12/21 12:00:10;;;;;;;50.25;25.62;;;;;;;0.95;100.00;100739.75;5520094;32;33105;-88
2022/12/21 12:03:58;;;;;;;55.70;25.48;;;;;;;0.96;100.00;100731.06;5525994;32;33693;-88
2022/12/21 12:07:06;;;;;;;49.90;26.75;;;;;;;0.90;100.00;100726.72;5524569;32;33665;-88
2022/12/21 12:10:09;;;;;;;53.42;26.65;;;;;;;1.00;100.00;100730.16;5520867;32;34554;-92
2022/12/21 12:13:27;;;;;;;52.03;26.75;;;;;;;0.95;100.00;100716.22;5526685;32;35096;-91
2022/12/21 12:16:50;;;;;;;51.47;26.27;;;;;;;0.91;100.00;100722.38;5548899;26;34701;-89
2022/12/21 12:20:02;;;;;;;55.17;26.85;;;;;;;0.95;100.00;100721.47;5590947;31;34068;-89
2022/12/21 12:23:24;;;;;;;52.05;26.75;;;;;;;0.89;100.00;100724.97;5601364;26;33917;-89
2022/12/21 12:26:50;;;;;;;51.28;26.17;;;;;;;0.94;100.00;100717.12;5579776;31;32933;-89
2022/12/21 12:30:03;;;;;;;52.22;25.77;;;;;;;0.78;100.00;100717.19;5573470;31;34538;-89
2022/12/21 12:33:15;;;;;;;54.03;26.52;;;;;;;0.88;100.00;100707.56;5580796;31;34272;-89
2022/12/21 12:36:39;;;;;;;57.62;25.50;;;;;;;0.88;100.00;100710.19;5567988;31;32206;-89
2022/12/21 12:39:48;;;;;;;49.58;26.23;;;;;;;0.85;100.00;100702.34;5584471;31;34023;-88
2022/12/21 12:42:55;;;;;;;50.88;25.10;;;;;;;0.84;100.00;100705.84;5599254;31;34308;-89
2022/12/21 12:46:25;;;;;;;51.92;26.25;;;;;;;0.80;100.00;100701.50;5575443;31;34305;-89
2022/12/21 12:49:28;;;;;;;48.72;25.62;;;;;;;0.74;100.00;100714.56;5586050;31;32520;-88
2022/12/21 12:52:54;;;;;;;60.78;27.58;;;;;;;0.66;100.00;100712.03;5592693;31;34149;-87
2022/12/21 12:56:22;;;;;;;50.97;25.15;;;;;;;0.58;100.00;100703.31;5574932;31;33723;-89
2022/12/21 12:59:42;;;;;;;52.42;26.40;;;;;;;0.59;100.00;100703.31;5581189;31;34054;-90
2022/12/21 13:03:09;;;;;;;52.88;25.67;;;;;;;0.56;100.00;100698.13;5563608;31;33196;-90
2022/12/21 13:06:42;;;;;;;54.47;25.75;;;;;;;0.65;100.00;100698.06;5578130;31;34056;-89
2022/12/21 13:09:54;;;;;;;51.15;25.55;;;;;;;0.60;100.00;100702.44;5653498;26;34845;-89
2022/12/21 13:13:33;;;;;;;49.83;25.42;;;;;;;0.68;100.00;100697.19;5619583;31;35232;-88
2022/12/21 13:16:47;;;;;;;53.00;25.70;;;;;;;0.69;100.00;100696.31;5580677;31;32523;-88
2022/12/21 13:19:52;;;;;;;50.78;25.45;;;;;;;0.66;100.00;100704.19;5604885;31;34085;-88
2022/12/21 13:23:23;;;;;;;55.22;26.55;;;;;;;0.50;100.00;100705.97;5585110;26;32577;-88
2022/12/21 13:26:35;;;;;;;51.95;24.25;;;;;;;0.59;100.00;100700.72;5552624;32;33848;-87
2022/12/21 13:29:48;;;;;;;49.72;25.20;;;;;;;0.64;100.00;100701.56;5547301;32;33995;-86
2022/12/21 13:32:55;;;;;;;55.25;25.35;;;;;;;0.60;100.00;100699.84;5538394;32;33231;-88
2022/12/21 13:36:10;;;;;;;48.17;24.85;;;;;;;0.60;100.00;100702.44;5557451;32;33753;-88
2022/12/21 13:39:26;;;;;;;49.28;25.25;;;;;;;0.71;100.00;100699.81;5557600;32;34689;-88
2022/12/21 13:42:48;;;;;;;49.72;25.17;;;;;;;0.74;100.00;100696.28;5556313;32;34121;-88
2022/12/21 13:46:14;;;;;;;50.63;25.67;;;;;;;0.65;100.00;100699.81;5561206;32;34222;-88
2022/12/21 13:49:35;;;;;;;47.70;24.87;;;;;;;0.65;100.00;100682.41;5560676;32;34299;-88
2022/12/21 13:52:50;;;;;;;51.13;24.85;;;;;;;0.58;100.00;100698.97;5542773;32;33291;-88
2022/12/21 13:55:59;;;;;;;55.95;25.12;;;;;;;0.52;100.00;100689.41;5555743;32;34164;-89
2022/12/21 13:59:16;;;;;;;50.63;24.65;;;;;;;0.53;100.00;100687.69;5556926;31;34370;-88
2022/12/21 14:02:44;;;;;;;50.92;26.27;;;;;;;0.54;100.00;100686.78;5566473;32;34258;-88
2022/12/21 14:06:25;;;;;;;53.42;25.40;;;;;;;0.54;100.00;100671.13;5555557;32;34288;-88
2022/12/21 14:09:51;;;;;;;51.75;25.05;;;;;;;0.56;100.00;100666.78;5539361;32;33004;-88
2022/12/21 14:13:43;;;;;;;49.08;25.27;;;;;;;0.60;100.00;100663.28;5581251;26;33851;-88
2022/12/21 14:17:00;;;;;;;48.08;25.50;;;;;;;0.59;100.00;100661.53;5636754;26;33877;-87
2022/12/21 14:20:18;;;;;;;56.28;26.67;;;;;;;0.67;100.00;100653.69;5557691;26;33905;-88
2022/12/21 14:23:28;;;;;;;53.40;27.17;;;;;;;0.47;100.00;100646.81;5520697;32;34769;-87
2022/12/21 14:26:33;;;;;;;56.13;26.90;;;;;;;0.52;100.00;100645.03;5527149;32;34229;-87
2022/12/21 14:29:38;;;;;;;55.38;27.45;;;;;;;0.53;100.00;100653.75;5528218;32;34284;-87
2022/12/21 14:32:48;;;;;;;52.08;27.10;;;;;;;0.47;100.00;100652.03;5527641;32;33688;-87
2022/12/21 14:36:15;;;;;;;54.25;27.27;;;;;;;0.51;100.00;100651.13;5516350;32;32537;-89
2022/12/21 14:39:50;;;;;;;49.05;25.35;;;;;;;0.52;100.00;100652.84;5575878;26;34093;-88
2022/12/21 14:42:55;;;;;;;50.25;25.98;;;;;;;0.55;100.00;100651.13;5523711;32;32888;-88
2022/12/21 14:46:27;;;;;;;54.45;27.27;;;;;;;0.69;100.00;100651.09;5509712;32;32641;-87
2022/12/21 14:49:32;;;;;;;55.15;27.87;;;;;;;0.56;100.00;100666.78;5517997;32;33833;-90
2022/12/21 14:52:35;;;;;;;57.03;27.90;;;;;;;0.35;100.00;100675.56;5508366;32;33049;-88
2022/12/21 14:55:40;;;;;;;53.87;27.52;;;;;;;0.45;100.00;100692.06;5531497;32;34064;-88
2022/12/21 14:58:51;;;;;;;60.05;28.77;;;;;;;0.35;100.00;100683.38;5529985;26;32503;-90
2022/12/21 15:05:49;;;;;;;57.10;27.70;;;;;;;0.39;100.00;100674.66;933143;26;20885;-90
2022/12/21 15:08:52;;;;;;;58.45;27.85;;;;;;;0.43;100.00;100683.34;5563363;31;32291;-90
2022/12/21 15:12:32;;;;;;;57.38;28.23;;;;;;;0.42;100.00;100681.63;5551616;32;34596;-89
2022/12/21 15:15:41;;;;;;;58.72;28.42;;;;;;;0.53;100.00;100672.91;5562652;32;34500;-90
2022/12/21 15:18:56;;;;;;;56.67;29.60;;;;;;;0.51;100.00;100663.31;5568911;32;34516;-89
2022/12/21 15:22:20;;;;;;;58.60;29.48;;;;;;;0.30;100.00;100665.09;5554985;32;34575;-90
2022/12/21 15:25:26;;;;;;;57.72;30.25;;;;;;;0.28;100.00;100655.53;5563985;32;34639;-90
2022/12/21 15:28:36;;;;;;;58.95;30.98;;;;;;;0.32;100.00;100657.28;5554585;32;34502;-89
2022/12/21 15:31:42;;;;;;;60.22;31.45;;;;;;;0.21;100.00;100662.53;5551550;32;31456;-90
2022/12/21 15:34:51;;;;;;;57.67;29.70;;;;;;;0.27;100.00;100662.53;5558089;31;34071;-90
2022/12/21 15:37:57;;;;;;;61.05;30.05;;;;;;;0.16;100.00;100664.28;5555266;32;33673;-90
2022/12/21 15:41:03;;;;;;;58.22;28.95;;;;;;;0.18;100.00;100663.41;5544793;32;33336;-90
2022/12/21 15:44:43;;;;;;;59.08;29.80;;;;;;;0.19;100.00;100666.91;5563813;26;34287;-88
2022/12/21 15:48:04;;;;;;;59.43;30.97;;;;;;;0.06;100.00;100660.81;5633746;26;33136;-88
2022/12/21 15:51:28;;;;;;;59.70;30.05;;;;;;;0.09;100.00;100652.97;5556944;31;34027;-88
2022/12/21 15:54:43;;;;;;;59.78;30.92;;;;;;;0.12;100.00;100651.25;5555502;31;33668;-88
2022/12/21 15:57:56;;;;;;;66.03;31.58;;;;;;;0.28;100.00;100659.03;5545563;31;32306;-88
2022/12/21 16:01:22;;;;;;;68.25;32.90;;;;;;;0.15;100.00;100652.12;5599275;26;33977;-88
2022/12/21 16:04:26;;;;;;;65.12;32.03;;;;;;;0.10;100.00;100647.75;5574862;32;34091;-88
2022/12/21 16:07:29;;;;;;;65.97;32.30;;;;;;;0.05;100.00;100654.72;5583785;32;34916;-89
